Terminal Aerodrome Forecast
Issued by NWS Wilmington, OH

Home | Current Version | Previous Version | Text Only | Print | Product List | Glossary On
Versions: 1 2 3 4 5 6 7 8 9 10 11 12 13 14 15 16 17 18
000
FTUS41 KILN 051300 AAA
TAFDAY
TAF AMD
KDAY 051345Z 0514/0612 15006KT P6SM SCT060
     FM051600 20010KT P6SM SCT060
     FM051800 23010KT P6SM BKN060
     FM060000 20004KT P6SM SCT080=

USA.gov is the U.S. government's official web portal to all federal, state and local government web resources and services.